createdAt,value
2022-10-10T03:50:44.164Z,6.20
2022-10-10T03:53:12.504Z,6.20
2022-10-10T03:55:41.837Z,6.20
2022-10-10T03:58:10.264Z,6.10
2022-10-10T04:00:39.678Z,6.10
2022-10-10T04:03:09.370Z,6.10
2022-10-10T04:05:38.934Z,6.10
2022-10-10T04:08:08.994Z,6.00
2022-10-10T04:10:37.413Z,6.00
2022-10-10T04:13:06.006Z,6.00
2022-10-10T04:15:34.289Z,6.00
2022-10-10T04:18:03.223Z,5.90
2022-10-10T04:20:31.980Z,5.90
2022-10-10T04:23:00.750Z,5.90
2022-10-10T04:25:30.878Z,5.90
2022-10-10T04:28:01.166Z,5.90
2022-10-10T04:30:32.332Z,5.90
2022-10-10T04:33:00.743Z,5.80
2022-10-10T04:35:29.120Z,5.80
2022-10-10T04:37:57.949Z,5.80
2022-10-10T04:40:26.960Z,5.80
2022-10-10T04:42:57.713Z,5.80
2022-10-10T04:45:26.742Z,5.70
2022-10-10T04:47:55.428Z,5.80
2022-10-10T04:50:24.976Z,5.80
2022-10-10T04:52:53.835Z,5.80
2022-10-10T04:55:22.340Z,5.70
2022-10-10T04:57:51.439Z,5.70
2022-10-10T05:00:21.478Z,5.70
2022-10-10T05:02:52.227Z,5.70
2022-10-10T05:05:20.696Z,5.70
2022-10-10T05:07:54.479Z,5.70
2022-10-10T05:10:23.932Z,5.70
2022-10-10T05:12:52.871Z,5.60
2022-10-10T05:15:22.932Z,5.70
2022-10-10T05:17:51.230Z,5.70
2022-10-10T05:20:19.712Z,5.70
2022-10-10T05:22:48.204Z,5.70
2022-10-10T05:25:16.801Z,5.80
2022-10-10T05:27:45.247Z,5.80
2022-10-10T05:30:15.010Z,5.80
2022-10-10T05:32:44.798Z,5.80
2022-10-10T05:35:13.274Z,5.80
2022-10-10T05:37:41.766Z,5.80
2022-10-10T05:40:11.132Z,5.80
2022-10-10T05:42:39.819Z,5.80
2022-10-10T05:45:09.013Z,5.90
2022-10-10T05:47:39.043Z,5.90
2022-10-10T05:50:14.048Z,6.00
2022-10-10T05:52:49.783Z,6.00
2022-10-10T05:55:18.791Z,6.00
2022-10-10T05:57:47.109Z,6.00
2022-10-10T06:00:15.801Z,6.00
2022-10-10T06:02:44.141Z,6.10
2022-10-10T06:05:14.327Z,6.20
2022-10-10T06:08:04.310Z,6.30
2022-10-10T06:10:31.114Z,6.40
2022-10-10T06:13:00.039Z,6.50
2022-10-10T06:15:28.587Z,6.60
2022-10-10T06:17:56.965Z,6.90
2022-10-10T06:20:26.770Z,7.00
2022-10-10T06:22:55.253Z,7.00
2022-10-10T06:25:39.520Z,7.00
2022-10-10T06:28:09.651Z,7.00
2022-10-10T06:30:41.848Z,6.10
2022-10-10T06:33:10.212Z,7.00
2022-10-10T06:35:44.452Z,7.90
2022-10-10T06:38:13.796Z,9.70
2022-10-10T06:40:42.609Z,11.80
2022-10-10T06:43:12.928Z,13.30
2022-10-10T06:45:42.469Z,14.30
2022-10-10T06:48:11.637Z,14.80
2022-10-10T06:50:40.072Z,15.90
2022-10-10T06:53:10.270Z,16.70
2022-10-10T06:55:38.597Z,18.70
2022-10-10T06:58:08.100Z,18.60
2022-10-10T07:00:36.571Z,18.70
2022-10-10T07:03:05.242Z,17.90
2022-10-10T07:05:33.945Z,16.40
2022-10-10T07:08:02.539Z,15.00
2022-10-10T07:10:33.798Z,14.10
2022-10-10T07:13:02.080Z,13.40
2022-10-10T07:15:30.551Z,12.40
2022-10-10T07:17:59.749Z,11.70
2022-10-10T07:20:28.252Z,11.40
2022-10-10T07:22:56.760Z,11.10
2022-10-10T07:25:25.199Z,10.90
2022-10-10T07:27:55.081Z,10.50
2022-10-10T07:30:23.530Z,10.30
2022-10-10T07:32:52.261Z,10.10
2022-10-10T07:35:21.840Z,10.00
2022-10-10T07:37:50.510Z,9.80
2022-10-10T07:40:19.016Z,9.70
2022-10-10T07:42:47.479Z,9.90
2022-10-10T07:45:17.529Z,9.80
2022-10-10T07:47:45.968Z,9.90
2022-10-10T07:50:15.177Z,9.90
2022-10-10T07:52:43.583Z,10.00
2022-10-10T07:55:13.082Z,9.90
2022-10-10T07:57:41.358Z,9.90
2022-10-10T08:00:11.854Z,9.80
2022-10-10T08:02:42.531Z,9.90
2022-10-10T08:05:12.629Z,9.90
2022-10-10T08:07:40.947Z,9.90
2022-10-10T08:10:10.542Z,10.00
2022-10-10T08:12:38.889Z,10.00
2022-10-10T08:15:08.218Z,10.10
2022-10-10T08:17:36.663Z,10.20
2022-10-10T08:20:07.647Z,10.30
2022-10-10T08:22:36.052Z,10.10
2022-10-10T08:25:04.593Z,10.20
2022-10-10T08:27:35.156Z,10.30
2022-10-10T08:30:03.794Z,10.40
2022-10-10T08:32:32.163Z,10.50
2022-10-10T08:35:00.535Z,10.60
2022-10-10T08:37:36.467Z,10.60
2022-10-10T08:40:07.225Z,10.50
2022-10-10T08:42:47.863Z,10.50
2022-10-10T08:45:23.090Z,10.60
2022-10-10T08:47:55.949Z,10.70
2022-10-10T08:50:28.443Z,10.70
2022-10-10T08:53:02.359Z,10.80
2022-10-10T08:55:33.885Z,10.80
2022-10-10T08:58:08.258Z,10.90
2022-10-10T09:00:43.117Z,10.90
2022-10-10T09:03:25.236Z,11.00
2022-10-10T09:06:06.134Z,11.00
2022-10-10T09:08:46.048Z,11.10
2022-10-10T09:11:25.880Z,11.20
2022-10-10T09:14:05.918Z,11.30
2022-10-10T09:16:41.480Z,11.40
2022-10-10T09:19:24.644Z,11.50
2022-10-10T09:21:57.849Z,11.60
2022-10-10T09:24:33.613Z,11.70
2022-10-10T09:27:05.857Z,11.80
2022-10-10T09:29:40.031Z,12.00
2022-10-10T09:32:14.536Z,12.20
2022-10-10T09:34:47.578Z,12.30
2022-10-10T09:37:35.627Z,12.50
2022-10-10T09:40:19.119Z,12.60
2022-10-10T09:42:47.571Z,13.10
2022-10-10T09:45:20.385Z,12.80
2022-10-10T09:47:51.976Z,12.90
2022-10-10T09:50:20.352Z,13.10
2022-10-10T09:52:49.249Z,13.30
2022-10-10T09:55:25.811Z,13.50
2022-10-10T09:57:56.819Z,13.60
2022-10-10T10:00:35.432Z,13.70
2022-10-10T10:03:13.048Z,13.60
2022-10-10T10:05:43.332Z,13.50
2022-10-10T10:08:23.900Z,13.50
2022-10-10T10:10:58.109Z,13.50
2022-10-10T10:13:31.340Z,13.50
2022-10-10T10:16:07.404Z,13.60
2022-10-10T10:18:44.154Z,13.70
2022-10-10T10:21:19.860Z,14.00
2022-10-10T10:23:55.721Z,14.30
2022-10-10T10:26:29.121Z,14.20
2022-10-10T10:28:59.468Z,14.20
2022-10-10T10:31:57.991Z,14.20
2022-10-10T10:34:52.812Z,14.40
2022-10-10T10:37:25.257Z,14.30
2022-10-10T10:40:13.212Z,14.30
2022-10-10T10:42:57.891Z,14.30
2022-10-10T10:45:37.547Z,14.30
2022-10-10T10:48:19.493Z,14.30
2022-10-10T10:50:53.992Z,14.40
2022-10-10T10:53:30.056Z,14.30
2022-10-10T10:56:10.031Z,14.40
2022-10-10T10:59:24.113Z,14.60
2022-10-10T11:01:59.319Z,14.60
2022-10-10T11:05:24.401Z,14.60
2022-10-10T11:07:52.933Z,14.40
2022-10-10T11:10:30.167Z,14.40
2022-10-10T11:13:08.161Z,14.50
2022-10-10T11:18:36.826Z,14.50
2022-10-10T11:21:10.092Z,14.50
2022-10-10T11:23:44.214Z,14.50
2022-10-10T11:26:21.388Z,14.60
2022-10-10T11:28:55.394Z,14.70
2022-10-10T11:31:31.832Z,14.70
2022-10-10T11:34:04.875Z,14.80
2022-10-10T11:36:36.690Z,14.90
2022-10-10T11:39:15.601Z,15.00
2022-10-10T11:41:50.993Z,15.10
2022-10-10T11:44:24.313Z,15.20
2022-10-10T11:47:00.369Z,15.20
2022-10-10T11:49:38.153Z,15.20
2022-10-10T11:52:33.506Z,15.30
2022-10-10T11:55:10.540Z,15.40
2022-10-10T11:57:44.217Z,15.50
2022-10-10T12:00:16.733Z,15.50
2022-10-10T12:02:47.993Z,15.50
2022-10-10T12:05:22.180Z,15.50
2022-10-10T12:08:04.033Z,15.50
2022-10-10T12:10:37.340Z,15.60
2022-10-10T12:13:20.754Z,15.50
2022-10-10T12:15:53.123Z,15.60
2022-10-10T12:18:29.184Z,15.60
2022-10-10T12:21:08.929Z,15.60
2022-10-10T12:23:38.438Z,15.70
2022-10-10T12:26:06.932Z,15.70
2022-10-10T12:28:59.039Z,15.80
2022-10-10T12:31:39.000Z,15.80
2022-10-10T12:34:18.102Z,15.80
2022-10-10T12:37:22.725Z,15.90
2022-10-10T12:40:19.429Z,15.90
2022-10-10T12:43:05.824Z,16.00
2022-10-10T12:46:08.262Z,16.00
2022-10-10T12:48:39.274Z,16.00
2022-10-10T12:51:18.313Z,16.00
2022-10-10T12:53:51.013Z,16.10
2022-10-10T12:56:32.841Z,16.10
2022-10-10T12:59:01.953Z,16.10
2022-10-10T13:01:35.690Z,16.10
2022-10-10T13:04:05.974Z,16.10
2022-10-10T13:06:39.820Z,16.10
2022-10-10T13:09:12.573Z,16.20
2022-10-10T13:11:55.382Z,16.20
2022-10-10T13:14:24.774Z,16.20
2022-10-10T13:16:53.683Z,16.20
2022-10-10T13:19:25.463Z,16.20
2022-10-10T13:21:56.431Z,16.20
2022-10-10T13:24:31.345Z,16.20
2022-10-10T13:27:00.341Z,16.30
2022-10-10T13:29:32.618Z,16.30
2022-10-10T13:32:03.534Z,16.30
2022-10-10T13:34:48.468Z,16.30
2022-10-10T13:37:23.702Z,16.20
2022-10-10T13:39:54.417Z,16.10
2022-10-10T13:42:36.384Z,16.10
2022-10-10T13:45:38.664Z,16.10
2022-10-10T13:48:25.140Z,16.00
2022-10-10T13:51:03.593Z,16.40
2022-10-10T13:53:44.908Z,16.50
2022-10-10T13:56:16.470Z,16.40
2022-10-10T13:58:48.342Z,16.50
2022-10-10T14:01:27.077Z,16.50
2022-10-10T14:03:58.078Z,16.60
2022-10-10T14:06:30.058Z,16.70
2022-10-10T14:09:05.018Z,16.80
2022-10-10T14:11:35.279Z,16.90
2022-10-10T14:14:09.586Z,16.90
2022-10-10T14:16:37.992Z,16.90
2022-10-10T14:19:18.232Z,18.50
2022-10-10T14:21:48.139Z,16.80
2022-10-10T14:24:16.937Z,16.80
2022-10-10T14:26:45.471Z,16.80
2022-10-10T14:29:16.478Z,16.80
2022-10-10T14:31:46.449Z,16.80
2022-10-10T14:34:16.296Z,16.70
2022-10-10T14:36:50.603Z,16.70
2022-10-10T14:39:20.168Z,16.70
2022-10-10T14:41:48.885Z,16.60
2022-10-10T14:44:17.432Z,16.60
2022-10-10T14:46:46.071Z,16.50
2022-10-10T14:49:20.458Z,16.50
2022-10-10T14:51:50.977Z,16.50
2022-10-10T14:54:19.624Z,16.40
2022-10-10T14:57:06.707Z,16.40
2022-10-10T14:59:48.798Z,16.40
2022-10-10T15:02:20.304Z,16.30
2022-10-10T15:04:49.145Z,16.30
2022-10-10T15:07:20.345Z,16.20
2022-10-10T15:12:41.464Z,16.10
2022-10-10T15:15:12.564Z,16.10
2022-10-10T15:17:41.686Z,16.00
2022-10-10T15:20:12.444Z,16.00
2022-10-10T15:22:42.489Z,16.00
2022-10-10T15:25:11.676Z,15.90
2022-10-10T15:27:40.337Z,15.80
2022-10-10T15:30:10.250Z,15.80
2022-10-10T15:32:42.248Z,15.70
2022-10-10T15:35:15.780Z,15.70
2022-10-10T15:37:45.767Z,15.60
2022-10-10T15:40:17.522Z,15.50
2022-10-10T15:42:45.919Z,15.40
2022-10-10T15:45:22.625Z,15.40
2022-10-10T15:48:00.783Z,15.30
2022-10-10T15:50:29.040Z,15.20
2022-10-10T15:52:59.119Z,15.10
2022-10-10T15:55:27.570Z,15.00
2022-10-10T15:57:55.914Z,14.90
2022-10-10T16:00:25.843Z,14.80
2022-10-10T16:02:54.213Z,14.80
2022-10-10T16:05:23.382Z,14.70
2022-10-10T16:07:53.441Z,14.60
2022-10-10T16:10:23.264Z,14.60
2022-10-10T16:12:52.109Z,14.50
2022-10-10T16:15:21.821Z,14.40
2022-10-10T16:17:50.243Z,14.30
2022-10-10T16:20:20.170Z,14.30
2022-10-10T16:22:48.823Z,14.30
2022-10-10T16:25:22.396Z,14.30
2022-10-10T16:27:53.135Z,14.30
2022-10-10T16:30:21.670Z,14.20
2022-10-10T16:32:50.346Z,14.20
2022-10-10T16:35:18.708Z,14.10
2022-10-10T16:37:47.078Z,14.00
2022-10-10T16:40:15.595Z,14.00
2022-10-10T16:42:44.024Z,13.90
2022-10-10T16:45:14.181Z,13.80
2022-10-10T16:47:42.806Z,13.80
2022-10-10T16:50:11.855Z,13.80
2022-10-10T16:52:40.563Z,13.70
2022-10-10T16:55:11.349Z,13.70
2022-10-10T16:57:40.707Z,13.70
2022-10-10T17:00:10.602Z,13.60
2022-10-10T17:02:42.481Z,13.60
2022-10-10T17:05:11.413Z,13.60
2022-10-10T17:07:39.788Z,13.50
2022-10-10T17:10:08.962Z,13.50
2022-10-10T17:12:37.438Z,13.50
2022-10-10T17:15:07.223Z,13.40
2022-10-10T17:17:35.870Z,13.40
2022-10-10T17:20:07.168Z,13.30
2022-10-10T17:22:35.743Z,13.10
2022-10-10T17:25:04.093Z,13.30
2022-10-10T17:27:32.491Z,13.30
2022-10-10T17:30:00.906Z,13.30
2022-10-10T17:32:29.189Z,13.30
2022-10-10T17:34:58.516Z,13.20
2022-10-10T17:37:28.543Z,13.10
2022-10-10T17:39:56.878Z,13.10
2022-10-10T17:42:25.347Z,13.10
2022-10-10T17:44:56.973Z,13.10
2022-10-10T17:47:25.365Z,13.10
2022-10-10T17:49:54.019Z,13.00
2022-10-10T17:52:22.557Z,13.00
2022-10-10T17:54:52.462Z,12.90
2022-10-10T17:57:20.914Z,12.80
2022-10-10T17:59:50.584Z,12.80
2022-10-10T18:02:20.333Z,12.70
2022-10-10T18:04:48.700Z,12.70
2022-10-10T18:07:18.892Z,12.60
2022-10-10T18:09:47.936Z,12.60
2022-10-10T18:12:17.879Z,12.60
2022-10-10T18:14:51.259Z,12.40
2022-10-10T18:17:21.122Z,12.40
2022-10-10T18:19:50.303Z,12.30
2022-10-10T18:22:18.733Z,12.30
2022-10-10T18:24:47.052Z,12.20
2022-10-10T18:27:15.509Z,12.20
2022-10-10T18:29:45.331Z,12.10
2022-10-10T18:32:15.392Z,12.10
2022-10-10T18:34:43.699Z,12.10
2022-10-10T18:37:12.406Z,12.00
2022-10-10T18:39:41.956Z,12.00
2022-10-10T18:42:10.854Z,12.00
2022-10-10T18:44:39.237Z,12.00
2022-10-10T18:47:08.955Z,11.90
2022-10-10T18:49:37.730Z,11.80
2022-10-10T18:52:10.224Z,11.80
2022-10-10T18:54:38.998Z,11.80
2022-10-10T18:57:08.518Z,11.80
2022-10-10T18:59:36.914Z,11.70
2022-10-10T19:02:05.335Z,11.70
2022-10-10T19:04:40.885Z,11.70
2022-10-10T19:07:10.585Z,11.70
2022-10-10T19:09:40.418Z,11.70
2022-10-10T19:12:10.315Z,11.60
2022-10-10T19:14:44.587Z,11.50
2022-10-10T19:17:17.893Z,11.50
2022-10-10T19:19:49.190Z,11.50
2022-10-10T19:22:17.709Z,11.60
2022-10-10T19:24:54.104Z,11.60
2022-10-10T19:27:25.856Z,11.60
2022-10-10T19:29:54.930Z,11.70
2022-10-10T19:32:23.574Z,11.70
2022-10-10T19:34:53.622Z,11.80
2022-10-10T19:37:21.941Z,11.80
2022-10-10T19:39:53.899Z,11.80
2022-10-10T19:42:22.449Z,11.80
2022-10-10T19:44:52.668Z,11.90
2022-10-10T19:47:22.246Z,12.00
2022-10-10T19:49:50.523Z,12.10
2022-10-10T19:52:20.667Z,12.10
2022-10-10T19:54:51.199Z,12.10
2022-10-10T19:57:19.532Z,12.20
2022-10-10T19:59:47.904Z,12.20
2022-10-10T20:02:20.059Z,12.30
2022-10-10T20:04:48.497Z,11.30
2022-10-10T20:07:17.174Z,12.40
2022-10-10T20:09:48.696Z,12.50
2022-10-10T20:12:20.873Z,12.50
2022-10-10T20:14:50.326Z,12.50
2022-10-10T20:17:18.992Z,12.50
2022-10-10T20:19:49.220Z,12.50
2022-10-10T20:22:17.848Z,12.50
2022-10-10T20:24:48.462Z,12.50
2022-10-10T20:27:18.471Z,12.50
2022-10-10T20:29:47.060Z,12.50
2022-10-10T20:32:15.529Z,12.50
2022-10-10T20:34:44.086Z,12.50
2022-10-10T20:37:12.559Z,12.50
2022-10-10T20:39:43.817Z,12.50
2022-10-10T20:42:14.903Z,12.50
2022-10-10T20:44:44.362Z,12.50
2022-10-10T20:47:12.705Z,12.60
2022-10-10T20:49:41.150Z,12.60
2022-10-10T20:52:12.064Z,12.60
2022-10-10T20:54:40.758Z,11.70
2022-10-10T20:57:09.215Z,12.60
2022-10-10T20:59:40.562Z,12.70
2022-10-10T21:02:14.017Z,12.70
2022-10-10T21:04:45.628Z,12.80
2022-10-10T21:07:14.067Z,12.90
2022-10-10T21:09:48.698Z,13.00
2022-10-10T21:12:17.112Z,13.00
2022-10-10T21:14:48.981Z,13.10
2022-10-10T21:17:17.432Z,13.20
2022-10-10T21:19:48.019Z,13.30
2022-10-10T21:22:16.557Z,13.30
2022-10-10T21:24:46.759Z,13.30
2022-10-10T21:27:14.967Z,13.30
2022-10-10T21:29:45.288Z,13.30
2022-10-10T21:32:15.263Z,13.30
2022-10-10T21:34:46.932Z,13.30
2022-10-10T21:37:21.085Z,13.30
2022-10-10T21:39:51.443Z,13.30
2022-10-10T21:42:20.422Z,13.30
2022-10-10T21:44:48.666Z,13.30
2022-10-10T21:47:18.513Z,13.30
2022-10-10T21:49:47.266Z,13.40
2022-10-10T21:52:15.851Z,13.40
2022-10-10T21:54:44.768Z,13.40
2022-10-10T21:57:13.481Z,13.40
2022-10-10T21:59:41.973Z,13.50
2022-10-10T22:02:10.432Z,13.50
2022-10-10T22:04:41.525Z,13.50
2022-10-10T22:07:10.338Z,13.50
2022-10-10T22:09:39.338Z,13.40
2022-10-10T22:12:07.889Z,13.40
2022-10-10T22:14:37.885Z,13.40
2022-10-10T22:17:06.701Z,13.40
2022-10-10T22:19:37.774Z,13.30
2022-10-10T22:22:07.574Z,13.20
2022-10-10T22:24:35.934Z,13.20
2022-10-10T22:27:04.550Z,13.10
2022-10-10T22:29:34.348Z,13.10
2022-10-10T22:32:02.784Z,13.10
2022-10-10T22:34:31.244Z,13.10
2022-10-10T22:36:59.910Z,13.10
2022-10-10T22:39:29.817Z,13.10
2022-10-10T22:41:58.244Z,13.10
2022-10-10T22:44:26.622Z,13.10
2022-10-10T22:46:55.032Z,13.10
2022-10-10T22:49:23.683Z,13.00
